sensor_id;sensor_type;location;lat;lon;timestamp;P1;durP1;ratioP1;P2;durP2;ratioP2
47804;SDS011;33568;45.286;9.900;2022-10-31T00:00:45;20.55;;;10.27;;
47804;SDS011;33568;45.286;9.900;2022-10-31T00:03:12;24.27;;;10.43;;
47804;SDS011;33568;45.286;9.900;2022-10-31T00:05:43;21.08;;;9.30;;
47804;SDS011;33568;45.286;9.900;2022-10-31T00:08:11;18.52;;;9.73;;
47804;SDS011;33568;45.286;9.900;2022-10-31T00:10:38;14.52;;;9.18;;
47804;SDS011;33568;45.286;9.900;2022-10-31T00:13:06;21.15;;;10.40;;
47804;SDS011;33568;45.286;9.900;2022-10-31T00:15:33;14.68;;;9.90;;
47804;SDS011;33568;45.286;9.900;2022-10-31T00:18:00;13.60;;;9.38;;
47804;SDS011;33568;45.286;9.900;2022-10-31T00:20:27;16.05;;;9.15;;
47804;SDS011;33568;45.286;9.900;2022-10-31T00:22:57;16.88;;;9.20;;
47804;SDS011;33568;45.286;9.900;2022-10-31T00:25:24;13.95;;;8.43;;
47804;SDS011;33568;45.286;9.900;2022-10-31T00:27:51;15.27;;;9.10;;
47804;SDS011;33568;45.286;9.900;2022-10-31T00:30:17;28.63;;;9.75;;
47804;SDS011;33568;45.286;9.900;2022-10-31T00:35:10;13.25;;;9.20;;
47804;SDS011;33568;45.286;9.900;2022-10-31T00:37:36;16.83;;;9.02;;
47804;SDS011;33568;45.286;9.900;2022-10-31T00:42:30;17.98;;;9.35;;
47804;SDS011;33568;45.286;9.900;2022-10-31T00:44:57;15.65;;;9.82;;
47804;SDS011;33568;45.286;9.900;2022-10-31T00:47:24;16.63;;;9.48;;
47804;SDS011;33568;45.286;9.900;2022-10-31T00:52:16;19.42;;;8.13;;
47804;SDS011;33568;45.286;9.900;2022-10-31T00:54:43;19.45;;;9.55;;
47804;SDS011;33568;45.286;9.900;2022-10-31T00:57:10;27.55;;;9.02;;
47804;SDS011;33568;45.286;9.900;2022-10-31T01:02:02;13.27;;;8.48;;
47804;SDS011;33568;45.286;9.900;2022-10-31T01:06:56;13.43;;;8.98;;
47804;SDS011;33568;45.286;9.900;2022-10-31T01:09:23;21.30;;;9.23;;
47804;SDS011;33568;45.286;9.900;2022-10-31T01:14:16;15.55;;;9.07;;
47804;SDS011;33568;45.286;9.900;2022-10-31T01:19:08;12.38;;;8.98;;
47804;SDS011;33568;45.286;9.900;2022-10-31T01:24:01;12.75;;;8.20;;
47804;SDS011;33568;45.286;9.900;2022-10-31T01:26:30;20.42;;;8.80;;
47804;SDS011;33568;45.286;9.900;2022-10-31T01:28:59;15.63;;;8.38;;
47804;SDS011;33568;45.286;9.900;2022-10-31T01:31:32;12.48;;;8.65;;
47804;SDS011;33568;45.286;9.900;2022-10-31T01:34:00;12.30;;;9.10;;
47804;SDS011;33568;45.286;9.900;2022-10-31T01:36:32;14.20;;;8.68;;
47804;SDS011;33568;45.286;9.900;2022-10-31T01:39:04;15.80;;;8.70;;
47804;SDS011;33568;45.286;9.900;2022-10-31T01:41:35;10.80;;;8.27;;
47804;SDS011;33568;45.286;9.900;2022-10-31T01:44:50;18.40;;;8.38;;
47804;SDS011;33568;45.286;9.900;2022-10-31T01:46:55;20.27;;;8.45;;
47804;SDS011;33568;45.286;9.900;2022-10-31T01:51:59;13.68;;;8.18;;
47804;SDS011;33568;45.286;9.900;2022-10-31T01:54:33;12.25;;;8.35;;
47804;SDS011;33568;45.286;9.900;2022-10-31T01:57:05;12.00;;;6.97;;
47804;SDS011;33568;45.286;9.900;2022-10-31T01:59:35;14.38;;;8.13;;
47804;SDS011;33568;45.286;9.900;2022-10-31T02:02:06;14.40;;;7.93;;
47804;SDS011;33568;45.286;9.900;2022-10-31T02:04:32;11.90;;;8.82;;
47804;SDS011;33568;45.286;9.900;2022-10-31T02:07:02;13.98;;;7.97;;
47804;SDS011;33568;45.286;9.900;2022-10-31T02:09:36;11.82;;;7.68;;
47804;SDS011;33568;45.286;9.900;2022-10-31T02:12:03;12.90;;;7.90;;
47804;SDS011;33568;45.286;9.900;2022-10-31T02:14:32;12.68;;;7.75;;
47804;SDS011;33568;45.286;9.900;2022-10-31T02:16:59;13.35;;;8.07;;
47804;SDS011;33568;45.286;9.900;2022-10-31T02:21:55;12.20;;;8.52;;
47804;SDS011;33568;45.286;9.900;2022-10-31T02:30:16;11.95;;;7.75;;
47804;SDS011;33568;45.286;9.900;2022-10-31T02:39:08;11.60;;;7.85;;
47804;SDS011;33568;45.286;9.900;2022-10-31T02:47:33;17.13;;;8.50;;
47804;SDS011;33568;45.286;9.900;2022-10-31T02:50:05;15.50;;;8.00;;
47804;SDS011;33568;45.286;9.900;2022-10-31T02:52:33;12.55;;;7.97;;
47804;SDS011;33568;45.286;9.900;2022-10-31T02:55:42;14.02;;;7.75;;
47804;SDS011;33568;45.286;9.900;2022-10-31T03:00:35;10.10;;;7.47;;
47804;SDS011;33568;45.286;9.900;2022-10-31T03:03:14;11.30;;;7.53;;
47804;SDS011;33568;45.286;9.900;2022-10-31T03:11:36;11.88;;;7.05;;
47804;SDS011;33568;45.286;9.900;2022-10-31T03:14:19;9.65;;;7.55;;
47804;SDS011;33568;45.286;9.900;2022-10-31T03:16:55;9.40;;;7.15;;
47804;SDS011;33568;45.286;9.900;2022-10-31T03:19:34;14.15;;;8.98;;
47804;SDS011;33568;45.286;9.900;2022-10-31T03:22:16;14.10;;;7.07;;
47804;SDS011;33568;45.286;9.900;2022-10-31T03:24:48;11.10;;;8.43;;
47804;SDS011;33568;45.286;9.900;2022-10-31T03:27:21;13.32;;;7.47;;
47804;SDS011;33568;45.286;9.900;2022-10-31T03:29:50;11.52;;;7.40;;
47804;SDS011;33568;45.286;9.900;2022-10-31T03:34:53;11.02;;;7.25;;
47804;SDS011;33568;45.286;9.900;2022-10-31T03:37:24;10.88;;;7.10;;
47804;SDS011;33568;45.286;9.900;2022-10-31T03:39:55;16.95;;;7.68;;
47804;SDS011;33568;45.286;9.900;2022-10-31T03:42:26;11.50;;;7.07;;
47804;SDS011;33568;45.286;9.900;2022-10-31T03:44:57;7.25;;;6.03;;
47804;SDS011;33568;45.286;9.900;2022-10-31T03:47:29;9.23;;;7.35;;
47804;SDS011;33568;45.286;9.900;2022-10-31T03:49:56;11.73;;;6.60;;
47804;SDS011;33568;45.286;9.900;2022-10-31T03:52:33;10.57;;;6.43;;
47804;SDS011;33568;45.286;9.900;2022-10-31T03:55:13;8.73;;;6.25;;
47804;SDS011;33568;45.286;9.900;2022-10-31T03:57:53;11.65;;;6.53;;
47804;SDS011;33568;45.286;9.900;2022-10-31T04:00:23;16.98;;;7.03;;
47804;SDS011;33568;45.286;9.900;2022-10-31T04:02:58;8.70;;;6.85;;
47804;SDS011;33568;45.286;9.900;2022-10-31T04:05:31;14.75;;;6.63;;
47804;SDS011;33568;45.286;9.900;2022-10-31T04:08:01;11.80;;;6.63;;
47804;SDS011;33568;45.286;9.900;2022-10-31T04:10:33;10.82;;;7.00;;
47804;SDS011;33568;45.286;9.900;2022-10-31T04:13:06;11.68;;;6.55;;
47804;SDS011;33568;45.286;9.900;2022-10-31T04:15:43;12.50;;;6.63;;
47804;SDS011;33568;45.286;9.900;2022-10-31T04:18:11;10.05;;;5.95;;
47804;SDS011;33568;45.286;9.900;2022-10-31T04:20:39;7.20;;;5.63;;
47804;SDS011;33568;45.286;9.900;2022-10-31T04:23:40;7.38;;;5.68;;
47804;SDS011;33568;45.286;9.900;2022-10-31T04:26:08;10.18;;;5.53;;
47804;SDS011;33568;45.286;9.900;2022-10-31T04:28:37;8.13;;;5.88;;
47804;SDS011;33568;45.286;9.900;2022-10-31T04:31:05;8.75;;;5.80;;
47804;SDS011;33568;45.286;9.900;2022-10-31T04:33:34;7.45;;;5.30;;
47804;SDS011;33568;45.286;9.900;2022-10-31T04:36:01;8.90;;;5.43;;
47804;SDS011;33568;45.286;9.900;2022-10-31T04:38:31;7.63;;;4.97;;
47804;SDS011;33568;45.286;9.900;2022-10-31T04:40:58;8.10;;;5.40;;
47804;SDS011;33568;45.286;9.900;2022-10-31T04:44:00;10.20;;;5.65;;
47804;SDS011;33568;45.286;9.900;2022-10-31T04:46:27;11.68;;;5.20;;
47804;SDS011;33568;45.286;9.900;2022-10-31T04:48:56;5.95;;;4.80;;
47804;SDS011;33568;45.286;9.900;2022-10-31T04:51:23;7.65;;;5.40;;
47804;SDS011;33568;45.286;9.900;2022-10-31T04:53:50;6.80;;;4.90;;
47804;SDS011;33568;45.286;9.900;2022-10-31T04:56:39;5.35;;;4.38;;
47804;SDS011;33568;45.286;9.900;2022-10-31T04:59:13;10.23;;;4.88;;
47804;SDS011;33568;45.286;9.900;2022-10-31T05:02:00;10.13;;;4.63;;
47804;SDS011;33568;45.286;9.900;2022-10-31T05:04:47;6.70;;;3.55;;
47804;SDS011;33568;45.286;9.900;2022-10-31T05:09:39;6.28;;;3.30;;
47804;SDS011;33568;45.286;9.900;2022-10-31T05:12:06;4.03;;;3.08;;
47804;SDS011;33568;45.286;9.900;2022-10-31T05:14:51;3.50;;;2.80;;
47804;SDS011;33568;45.286;9.900;2022-10-31T05:17:36;7.72;;;3.22;;
47804;SDS011;33568;45.286;9.900;2022-10-31T05:20:31;3.38;;;3.00;;
47804;SDS011;33568;45.286;9.900;2022-10-31T05:23:16;5.47;;;2.88;;
47804;SDS011;33568;45.286;9.900;2022-10-31T05:28:09;3.47;;;3.10;;
47804;SDS011;33568;45.286;9.900;2022-10-31T05:33:03;6.53;;;3.38;;
47804;SDS011;33568;45.286;9.900;2022-10-31T05:36:02;10.05;;;4.10;;
47804;SDS011;33568;45.286;9.900;2022-10-31T05:38:35;5.97;;;3.63;;
47804;SDS011;33568;45.286;9.900;2022-10-31T05:41:23;6.18;;;4.30;;
47804;SDS011;33568;45.286;9.900;2022-10-31T05:43:52;5.40;;;3.92;;
47804;SDS011;33568;45.286;9.900;2022-10-31T05:46:23;8.95;;;5.05;;
47804;SDS011;33568;45.286;9.900;2022-10-31T05:49:08;6.00;;;4.63;;
47804;SDS011;33568;45.286;9.900;2022-10-31T05:51:53;11.77;;;4.60;;
47804;SDS011;33568;45.286;9.900;2022-10-31T05:54:25;7.80;;;4.18;;
47804;SDS011;33568;45.286;9.900;2022-10-31T05:56:53;10.52;;;5.10;;
47804;SDS011;33568;45.286;9.900;2022-10-31T05:59:19;7.65;;;4.30;;
47804;SDS011;33568;45.286;9.900;2022-10-31T06:01:47;7.10;;;5.35;;
47804;SDS011;33568;45.286;9.900;2022-10-31T06:04:31;7.10;;;4.78;;
47804;SDS011;33568;45.286;9.900;2022-10-31T06:06:59;5.63;;;5.03;;
47804;SDS011;33568;45.286;9.900;2022-10-31T06:09:26;6.93;;;5.57;;
47804;SDS011;33568;45.286;9.900;2022-10-31T06:14:24;9.93;;;5.70;;
47804;SDS011;33568;45.286;9.900;2022-10-31T06:16:54;8.75;;;5.82;;
47804;SDS011;33568;45.286;9.900;2022-10-31T06:19:40;13.20;;;7.25;;
47804;SDS011;33568;45.286;9.900;2022-10-31T06:22:08;12.20;;;6.55;;
47804;SDS011;33568;45.286;9.900;2022-10-31T06:24:37;9.13;;;5.82;;
47804;SDS011;33568;45.286;9.900;2022-10-31T06:27:24;14.80;;;6.20;;
47804;SDS011;33568;45.286;9.900;2022-10-31T06:29:53;10.25;;;6.65;;
47804;SDS011;33568;45.286;9.900;2022-10-31T06:32:31;13.85;;;6.05;;
47804;SDS011;33568;45.286;9.900;2022-10-31T06:34:57;12.18;;;6.93;;
47804;SDS011;33568;45.286;9.900;2022-10-31T06:39:52;10.15;;;6.95;;
47804;SDS011;33568;45.286;9.900;2022-10-31T06:44:45;18.70;;;8.55;;
47804;SDS011;33568;45.286;9.900;2022-10-31T06:47:27;14.02;;;8.15;;
47804;SDS011;33568;45.286;9.900;2022-10-31T06:49:58;19.83;;;8.68;;
47804;SDS011;33568;45.286;9.900;2022-10-31T06:52:25;19.50;;;8.73;;
47804;SDS011;33568;45.286;9.900;2022-10-31T06:54:52;19.45;;;9.40;;
47804;SDS011;33568;45.286;9.900;2022-10-31T06:57:20;18.35;;;10.55;;
47804;SDS011;33568;45.286;9.900;2022-10-31T06:59:47;14.68;;;8.65;;
47804;SDS011;33568;45.286;9.900;2022-10-31T07:02:31;18.95;;;9.63;;
47804;SDS011;33568;45.286;9.900;2022-10-31T07:04:57;17.42;;;9.82;;
47804;SDS011;33568;45.286;9.900;2022-10-31T07:07:25;13.95;;;10.00;;
47804;SDS011;33568;45.286;9.900;2022-10-31T07:09:52;14.93;;;9.45;;
47804;SDS011;33568;45.286;9.900;2022-10-31T07:12:25;14.75;;;10.13;;
47804;SDS011;33568;45.286;9.900;2022-10-31T07:14:57;14.13;;;10.48;;
47804;SDS011;33568;45.286;9.900;2022-10-31T07:17:23;13.80;;;10.63;;
47804;SDS011;33568;45.286;9.900;2022-10-31T07:19:53;18.10;;;11.70;;
47804;SDS011;33568;45.286;9.900;2022-10-31T07:22:20;13.63;;;11.35;;
47804;SDS011;33568;45.286;9.900;2022-10-31T07:24:48;17.55;;;12.02;;
47804;SDS011;33568;45.286;9.900;2022-10-31T07:27:39;14.48;;;11.05;;
47804;SDS011;33568;45.286;9.900;2022-10-31T07:30:09;13.88;;;11.10;;
47804;SDS011;33568;45.286;9.900;2022-10-31T07:32:44;15.63;;;11.68;;
47804;SDS011;33568;45.286;9.900;2022-10-31T07:35:17;13.65;;;10.85;;
47804;SDS011;33568;45.286;9.900;2022-10-31T07:38:06;18.15;;;10.82;;
47804;SDS011;33568;45.286;9.900;2022-10-31T07:40:36;18.15;;;11.23;;
47804;SDS011;33568;45.286;9.900;2022-10-31T07:43:03;17.30;;;11.15;;
47804;SDS011;33568;45.286;9.900;2022-10-31T07:45:53;12.95;;;10.65;;
47804;SDS011;33568;45.286;9.900;2022-10-31T07:48:55;14.45;;;10.90;;
47804;SDS011;33568;45.286;9.900;2022-10-31T07:51:40;14.52;;;11.90;;
47804;SDS011;33568;45.286;9.900;2022-10-31T07:54:32;17.65;;;11.38;;
47804;SDS011;33568;45.286;9.900;2022-10-31T07:59:25;14.95;;;11.93;;
47804;SDS011;33568;45.286;9.900;2022-10-31T08:01:53;13.68;;;10.98;;
47804;SDS011;33568;45.286;9.900;2022-10-31T08:04:45;17.05;;;12.77;;
47804;SDS011;33568;45.286;9.900;2022-10-31T08:07:35;26.25;;;16.50;;
47804;SDS011;33568;45.286;9.900;2022-10-31T08:10:05;27.90;;;16.08;;
47804;SDS011;33568;45.286;9.900;2022-10-31T08:12:33;22.38;;;16.02;;
47804;SDS011;33568;45.286;9.900;2022-10-31T08:15:00;24.83;;;15.80;;
47804;SDS011;33568;45.286;9.900;2022-10-31T08:17:27;23.40;;;16.33;;
47804;SDS011;33568;45.286;9.900;2022-10-31T08:19:57;24.20;;;16.83;;
47804;SDS011;33568;45.286;9.900;2022-10-31T08:22:31;25.58;;;18.27;;
47804;SDS011;33568;45.286;9.900;2022-10-31T08:24:59;21.67;;;16.23;;
47804;SDS011;33568;45.286;9.900;2022-10-31T08:29:53;25.13;;;16.58;;
47804;SDS011;33568;45.286;9.900;2022-10-31T08:35:04;28.05;;;16.58;;
47804;SDS011;33568;45.286;9.900;2022-10-31T08:37:55;29.65;;;15.68;;
47804;SDS011;33568;45.286;9.900;2022-10-31T08:40:26;24.70;;;17.08;;
47804;SDS011;33568;45.286;9.900;2022-10-31T08:45:24;23.15;;;15.57;;
47804;SDS011;33568;45.286;9.900;2022-10-31T08:47:51;31.08;;;15.52;;
47804;SDS011;33568;45.286;9.900;2022-10-31T08:50:17;24.45;;;16.17;;
47804;SDS011;33568;45.286;9.900;2022-10-31T08:52:45;30.77;;;15.68;;
47804;SDS011;33568;45.286;9.900;2022-10-31T08:55:12;23.83;;;16.02;;
47804;SDS011;33568;45.286;9.900;2022-10-31T08:58:02;28.08;;;14.80;;
47804;SDS011;33568;45.286;9.900;2022-10-31T09:00:38;28.27;;;16.27;;
47804;SDS011;33568;45.286;9.900;2022-10-31T09:03:15;32.40;;;14.50;;
47804;SDS011;33568;45.286;9.900;2022-10-31T09:05:43;28.65;;;14.68;;
47804;SDS011;33568;45.286;9.900;2022-10-31T09:08:12;24.45;;;14.95;;
47804;SDS011;33568;45.286;9.900;2022-10-31T09:10:39;37.40;;;14.73;;
47804;SDS011;33568;45.286;9.900;2022-10-31T09:13:09;30.67;;;14.88;;
47804;SDS011;33568;45.286;9.900;2022-10-31T09:15:38;21.23;;;13.70;;
47804;SDS011;33568;45.286;9.900;2022-10-31T09:18:14;23.17;;;14.02;;
47804;SDS011;33568;45.286;9.900;2022-10-31T09:20:49;26.42;;;14.10;;
47804;SDS011;33568;45.286;9.900;2022-10-31T09:23:17;26.38;;;12.88;;
47804;SDS011;33568;45.286;9.900;2022-10-31T09:25:46;19.85;;;12.30;;
47804;SDS011;33568;45.286;9.900;2022-10-31T09:28:29;19.35;;;12.63;;
47804;SDS011;33568;45.286;9.900;2022-10-31T09:31:00;24.08;;;11.18;;
47804;SDS011;33568;45.286;9.900;2022-10-31T09:33:44;21.40;;;11.77;;
47804;SDS011;33568;45.286;9.900;2022-10-31T09:36:31;30.05;;;12.32;;
47804;SDS011;33568;45.286;9.900;2022-10-31T09:38:58;24.60;;;11.70;;
47804;SDS011;33568;45.286;9.900;2022-10-31T09:41:27;22.35;;;11.80;;
47804;SDS011;33568;45.286;9.900;2022-10-31T09:47:10;21.58;;;11.88;;
47804;SDS011;33568;45.286;9.900;2022-10-31T09:50:01;20.67;;;11.85;;
47804;SDS011;33568;45.286;9.900;2022-10-31T09:52:40;20.45;;;11.60;;
47804;SDS011;33568;45.286;9.900;2022-10-31T09:55:14;22.85;;;11.90;;
47804;SDS011;33568;45.286;9.900;2022-10-31T09:57:58;21.45;;;12.25;;
47804;SDS011;33568;45.286;9.900;2022-10-31T10:00:26;24.58;;;12.43;;
47804;SDS011;33568;45.286;9.900;2022-10-31T10:05:22;18.13;;;10.98;;
47804;SDS011;33568;45.286;9.900;2022-10-31T10:11:02;25.23;;;12.10;;
47804;SDS011;33568;45.286;9.900;2022-10-31T10:27:38;18.02;;;12.00;;
47804;SDS011;33568;45.286;9.900;2022-10-31T10:30:12;28.45;;;11.98;;
47804;SDS011;33568;45.286;9.900;2022-10-31T10:32:55;21.10;;;11.35;;
47804;SDS011;33568;45.286;9.900;2022-10-31T10:35:38;22.70;;;11.13;;
47804;SDS011;33568;45.286;9.900;2022-10-31T10:38:28;24.60;;;10.70;;
47804;SDS011;33568;45.286;9.900;2022-10-31T10:41:01;18.67;;;10.13;;
47804;SDS011;33568;45.286;9.900;2022-10-31T10:43:33;19.83;;;10.98;;
47804;SDS011;33568;45.286;9.900;2022-10-31T10:46:05;24.83;;;11.27;;
47804;SDS011;33568;45.286;9.900;2022-10-31T10:51:46;23.88;;;10.63;;
47804;SDS011;33568;45.286;9.900;2022-10-31T10:59:48;22.42;;;11.35;;
47804;SDS011;33568;45.286;9.900;2022-10-31T11:02:25;33.08;;;11.57;;
47804;SDS011;33568;45.286;9.900;2022-10-31T11:04:55;23.92;;;11.52;;
47804;SDS011;33568;45.286;9.900;2022-10-31T11:07:23;24.77;;;10.88;;
47804;SDS011;33568;45.286;9.900;2022-10-31T11:09:50;27.15;;;11.57;;
47804;SDS011;33568;45.286;9.900;2022-10-31T11:12:30;26.75;;;10.48;;
47804;SDS011;33568;45.286;9.900;2022-10-31T11:14:59;20.30;;;10.57;;
47804;SDS011;33568;45.286;9.900;2022-10-31T11:17:38;25.25;;;12.07;;
47804;SDS011;33568;45.286;9.900;2022-10-31T11:20:21;26.38;;;12.95;;
47804;SDS011;33568;45.286;9.900;2022-10-31T11:23:01;20.42;;;11.98;;
47804;SDS011;33568;45.286;9.900;2022-10-31T11:25:48;21.08;;;12.18;;
47804;SDS011;33568;45.286;9.900;2022-10-31T11:28:26;22.90;;;12.90;;
47804;SDS011;33568;45.286;9.900;2022-10-31T11:30:55;26.45;;;13.23;;
47804;SDS011;33568;45.286;9.900;2022-10-31T11:35:53;25.27;;;13.13;;
47804;SDS011;33568;45.286;9.900;2022-10-31T11:38:22;26.40;;;12.35;;
47804;SDS011;33568;45.286;9.900;2022-10-31T11:41:03;26.05;;;12.80;;
47804;SDS011;33568;45.286;9.900;2022-10-31T11:43:53;23.55;;;13.32;;
47804;SDS011;33568;45.286;9.900;2022-10-31T11:46:35;26.85;;;12.43;;
47804;SDS011;33568;45.286;9.900;2022-10-31T11:49:14;20.73;;;12.50;;
47804;SDS011;33568;45.286;9.900;2022-10-31T11:51:46;20.15;;;12.50;;
47804;SDS011;33568;45.286;9.900;2022-10-31T11:54:40;20.60;;;12.82;;
47804;SDS011;33568;45.286;9.900;2022-10-31T11:57:30;24.92;;;13.00;;
47804;SDS011;33568;45.286;9.900;2022-10-31T11:59:59;30.80;;;12.27;;
47804;SDS011;33568;45.286;9.900;2022-10-31T12:02:38;21.27;;;12.13;;
47804;SDS011;33568;45.286;9.900;2022-10-31T12:05:06;28.17;;;12.63;;
47804;SDS011;33568;45.286;9.900;2022-10-31T12:07:37;24.92;;;13.43;;
47804;SDS011;33568;45.286;9.900;2022-10-31T12:10:09;28.48;;;12.52;;
47804;SDS011;33568;45.286;9.900;2022-10-31T12:20:32;31.08;;;13.15;;
47804;SDS011;33568;45.286;9.900;2022-10-31T12:26:08;39.90;;;13.25;;
47804;SDS011;33568;45.286;9.900;2022-10-31T12:34:54;25.67;;;13.48;;
47804;SDS011;33568;45.286;9.900;2022-10-31T12:40:27;29.08;;;13.90;;
47804;SDS011;33568;45.286;9.900;2022-10-31T12:43:12;23.50;;;12.93;;
47804;SDS011;33568;45.286;9.900;2022-10-31T12:48:28;22.15;;;12.52;;
47804;SDS011;33568;45.286;9.900;2022-10-31T12:59:45;30.30;;;14.52;;
47804;SDS011;33568;45.286;9.900;2022-10-31T13:05:10;35.05;;;15.32;;
47804;SDS011;33568;45.286;9.900;2022-10-31T13:07:51;26.42;;;14.00;;
47804;SDS011;33568;45.286;9.900;2022-10-31T13:10:34;31.17;;;14.48;;
47804;SDS011;33568;45.286;9.900;2022-10-31T13:13:12;37.47;;;14.80;;
47804;SDS011;33568;45.286;9.900;2022-10-31T13:16:00;33.88;;;14.20;;
47804;SDS011;33568;45.286;9.900;2022-10-31T13:18:38;31.92;;;15.10;;
47804;SDS011;33568;45.286;9.900;2022-10-31T13:21:13;28.30;;;14.90;;
47804;SDS011;33568;45.286;9.900;2022-10-31T13:23:49;27.88;;;15.52;;
47804;SDS011;33568;45.286;9.900;2022-10-31T13:31:46;30.30;;;14.13;;
47804;SDS011;33568;45.286;9.900;2022-10-31T13:45:23;25.65;;;16.23;;
47804;SDS011;33568;45.286;9.900;2022-10-31T13:47:59;32.45;;;15.35;;
47804;SDS011;33568;45.286;9.900;2022-10-31T13:50:30;31.55;;;15.75;;
47804;SDS011;33568;45.286;9.900;2022-10-31T13:53:11;31.25;;;15.32;;
47804;SDS011;33568;45.286;9.900;2022-10-31T13:55:44;27.60;;;15.32;;
47804;SDS011;33568;45.286;9.900;2022-10-31T13:58:33;26.45;;;14.27;;
47804;SDS011;33568;45.286;9.900;2022-10-31T14:03:43;26.35;;;15.20;;
47804;SDS011;33568;45.286;9.900;2022-10-31T14:06:12;25.73;;;13.98;;
47804;SDS011;33568;45.286;9.900;2022-10-31T14:08:41;31.50;;;14.68;;
47804;SDS011;33568;45.286;9.900;2022-10-31T14:11:24;23.27;;;14.20;;
47804;SDS011;33568;45.286;9.900;2022-10-31T14:13:54;26.60;;;14.50;;
47804;SDS011;33568;45.286;9.900;2022-10-31T14:16:29;28.33;;;14.13;;
47804;SDS011;33568;45.286;9.900;2022-10-31T14:18:58;33.97;;;15.00;;
47804;SDS011;33568;45.286;9.900;2022-10-31T14:21:28;24.77;;;13.23;;
47804;SDS011;33568;45.286;9.900;2022-10-31T14:23:55;26.98;;;14.38;;
47804;SDS011;33568;45.286;9.900;2022-10-31T14:28:52;32.13;;;14.77;;
47804;SDS011;33568;45.286;9.900;2022-10-31T14:39:32;32.92;;;14.20;;
47804;SDS011;33568;45.286;9.900;2022-10-31T14:48:01;34.15;;;14.52;;
47804;SDS011;33568;45.286;9.900;2022-10-31T14:55:52;23.35;;;13.40;;
47804;SDS011;33568;45.286;9.900;2022-10-31T14:58:29;29.40;;;14.98;;
47804;SDS011;33568;45.286;9.900;2022-10-31T15:00:59;28.10;;;14.20;;
47804;SDS011;33568;45.286;9.900;2022-10-31T15:06:10;29.08;;;14.60;;
47804;SDS011;33568;45.286;9.900;2022-10-31T15:08:40;30.77;;;14.30;;
47804;SDS011;33568;45.286;9.900;2022-10-31T15:11:11;32.55;;;13.93;;
47804;SDS011;33568;45.286;9.900;2022-10-31T15:13:47;28.98;;;14.93;;
47804;SDS011;33568;45.286;9.900;2022-10-31T15:16:24;38.50;;;14.10;;
47804;SDS011;33568;45.286;9.900;2022-10-31T15:19:04;32.03;;;13.70;;
47804;SDS011;33568;45.286;9.900;2022-10-31T15:21:40;31.48;;;14.13;;
47804;SDS011;33568;45.286;9.900;2022-10-31T15:24:11;41.72;;;15.70;;
47804;SDS011;33568;45.286;9.900;2022-10-31T15:26:45;30.75;;;14.25;;
47804;SDS011;33568;45.286;9.900;2022-10-31T15:29:26;30.38;;;14.13;;
47804;SDS011;33568;45.286;9.900;2022-10-31T15:31:54;31.73;;;14.57;;
47804;SDS011;33568;45.286;9.900;2022-10-31T15:37:02;32.35;;;14.10;;
47804;SDS011;33568;45.286;9.900;2022-10-31T15:39:29;37.38;;;13.32;;
47804;SDS011;33568;45.286;9.900;2022-10-31T15:41:56;40.95;;;13.93;;
47804;SDS011;33568;45.286;9.900;2022-10-31T15:44:31;44.00;;;15.18;;
47804;SDS011;33568;45.286;9.900;2022-10-31T15:47:01;40.47;;;14.70;;
47804;SDS011;33568;45.286;9.900;2022-10-31T15:49:42;47.40;;;13.48;;
47804;SDS011;33568;45.286;9.900;2022-10-31T15:52:39;39.05;;;13.77;;
47804;SDS011;33568;45.286;9.900;2022-10-31T15:57:41;33.97;;;12.52;;
47804;SDS011;33568;45.286;9.900;2022-10-31T16:00:21;40.22;;;14.27;;
47804;SDS011;33568;45.286;9.900;2022-10-31T16:03:36;37.05;;;14.25;;
47804;SDS011;33568;45.286;9.900;2022-10-31T16:05:50;46.47;;;16.13;;
47804;SDS011;33568;45.286;9.900;2022-10-31T16:13:34;37.22;;;14.70;;
47804;SDS011;33568;45.286;9.900;2022-10-31T16:16:04;47.00;;;15.77;;
47804;SDS011;33568;45.286;9.900;2022-10-31T16:18:41;36.50;;;14.95;;
47804;SDS011;33568;45.286;9.900;2022-10-31T16:21:08;29.40;;;13.93;;
47804;SDS011;33568;45.286;9.900;2022-10-31T16:23:36;35.28;;;15.15;;
47804;SDS011;33568;45.286;9.900;2022-10-31T16:26:07;36.63;;;14.80;;
47804;SDS011;33568;45.286;9.900;2022-10-31T16:28:34;43.95;;;14.90;;
47804;SDS011;33568;45.286;9.900;2022-10-31T16:31:11;27.30;;;14.15;;
47804;SDS011;33568;45.286;9.900;2022-10-31T16:33:39;36.30;;;13.82;;
47804;SDS011;33568;45.286;9.900;2022-10-31T16:38:57;35.47;;;11.85;;
47804;SDS011;33568;45.286;9.900;2022-10-31T16:41:24;25.58;;;11.35;;
47804;SDS011;33568;45.286;9.900;2022-10-31T16:43:51;30.92;;;11.10;;
47804;SDS011;33568;45.286;9.900;2022-10-31T16:46:21;26.35;;;11.27;;
47804;SDS011;33568;45.286;9.900;2022-10-31T16:48:50;26.75;;;10.13;;
47804;SDS011;33568;45.286;9.900;2022-10-31T16:51:17;28.27;;;10.70;;
47804;SDS011;33568;45.286;9.900;2022-10-31T16:53:43;27.80;;;10.13;;
47804;SDS011;33568;45.286;9.900;2022-10-31T16:56:17;27.67;;;10.15;;
47804;SDS011;33568;45.286;9.900;2022-10-31T16:59:04;25.42;;;9.27;;
47804;SDS011;33568;45.286;9.900;2022-10-31T17:01:32;20.38;;;9.25;;
47804;SDS011;33568;45.286;9.900;2022-10-31T17:04:00;21.02;;;9.40;;
47804;SDS011;33568;45.286;9.900;2022-10-31T17:06:27;22.67;;;9.82;;
47804;SDS011;33568;45.286;9.900;2022-10-31T17:08:53;21.70;;;9.38;;
47804;SDS011;33568;45.286;9.900;2022-10-31T17:11:21;17.80;;;9.00;;
47804;SDS011;33568;45.286;9.900;2022-10-31T17:13:50;24.58;;;8.40;;
47804;SDS011;33568;45.286;9.900;2022-10-31T17:16:17;18.63;;;8.52;;
47804;SDS011;33568;45.286;9.900;2022-10-31T17:18:44;31.25;;;9.70;;
47804;SDS011;33568;45.286;9.900;2022-10-31T17:21:17;21.60;;;9.07;;
47804;SDS011;33568;45.286;9.900;2022-10-31T17:23:48;19.77;;;9.52;;
47804;SDS011;33568;45.286;9.900;2022-10-31T17:26:15;22.73;;;9.38;;
47804;SDS011;33568;45.286;9.900;2022-10-31T17:28:42;21.15;;;10.10;;
47804;SDS011;33568;45.286;9.900;2022-10-31T17:31:10;22.85;;;9.82;;
47804;SDS011;33568;45.286;9.900;2022-10-31T17:33:48;24.95;;;8.95;;
47804;SDS011;33568;45.286;9.900;2022-10-31T17:36:15;25.33;;;10.45;;
47804;SDS011;33568;45.286;9.900;2022-10-31T17:38:42;20.77;;;9.00;;
47804;SDS011;33568;45.286;9.900;2022-10-31T17:43:34;20.25;;;9.48;;
47804;SDS011;33568;45.286;9.900;2022-10-31T17:46:01;23.75;;;9.27;;
47804;SDS011;33568;45.286;9.900;2022-10-31T17:48:28;21.30;;;9.02;;
47804;SDS011;33568;45.286;9.900;2022-10-31T17:50:58;20.85;;;9.82;;
47804;SDS011;33568;45.286;9.900;2022-10-31T17:53:29;22.80;;;10.68;;
47804;SDS011;33568;45.286;9.900;2022-10-31T17:56:00;23.13;;;10.48;;
47804;SDS011;33568;45.286;9.900;2022-10-31T17:58:31;26.00;;;10.07;;
47804;SDS011;33568;45.286;9.900;2022-10-31T18:01:00;23.90;;;11.30;;
47804;SDS011;33568;45.286;9.900;2022-10-31T18:03:31;30.25;;;10.65;;
47804;SDS011;33568;45.286;9.900;2022-10-31T18:08:27;28.23;;;10.35;;
47804;SDS011;33568;45.286;9.900;2022-10-31T18:10:55;24.35;;;11.10;;
47804;SDS011;33568;45.286;9.900;2022-10-31T18:13:26;22.63;;;10.52;;
47804;SDS011;33568;45.286;9.900;2022-10-31T18:15:53;24.23;;;12.63;;
47804;SDS011;33568;45.286;9.900;2022-10-31T18:18:20;19.40;;;10.27;;
47804;SDS011;33568;45.286;9.900;2022-10-31T18:20:47;22.17;;;11.35;;
47804;SDS011;33568;45.286;9.900;2022-10-31T18:23:13;29.10;;;10.60;;
47804;SDS011;33568;45.286;9.900;2022-10-31T18:25:39;20.95;;;11.32;;
47804;SDS011;33568;45.286;9.900;2022-10-31T18:28:08;26.70;;;12.93;;
47804;SDS011;33568;45.286;9.900;2022-10-31T18:30:37;26.55;;;11.52;;